createdAt,value
2019-02-23T00:02:07.156Z,92.00
2019-02-23T00:04:35.835Z,92.10
2019-02-23T00:07:04.607Z,92.30
2019-02-23T00:09:33.139Z,92.40
2019-02-23T00:12:01.644Z,92.50
2019-02-23T00:14:30.207Z,92.60
2019-02-23T00:16:58.742Z,92.70
2019-02-23T00:19:27.228Z,92.60
2019-02-23T00:21:55.690Z,92.90
2019-02-23T00:24:24.174Z,92.70
2019-02-23T00:26:52.646Z,92.60
2019-02-23T00:29:21.137Z,92.60
2019-02-23T00:31:49.668Z,92.60
2019-02-23T00:34:18.155Z,92.50
2019-02-23T00:36:46.615Z,92.40
2019-02-23T00:39:15.106Z,92.30
2019-02-23T00:41:43.663Z,92.20
2019-02-23T00:44:12.275Z,92.20
2019-02-23T00:46:40.762Z,92.10
2019-02-23T00:49:09.250Z,92.10
2019-02-23T00:51:37.778Z,92.10
2019-02-23T00:54:06.337Z,92.10
2019-02-23T00:56:34.897Z,92.10
2019-02-23T00:59:03.434Z,92.00
2019-02-23T01:01:31.903Z,91.90
2019-02-23T01:04:00.395Z,92.00
2019-02-23T01:06:28.863Z,92.40
2019-02-23T01:08:57.325Z,92.10
2019-02-23T01:11:25.887Z,92.20
2019-02-23T01:13:54.477Z,92.10
2019-02-23T01:16:23.043Z,92.10
2019-02-23T01:18:51.578Z,92.10
2019-02-23T01:21:20.050Z,92.00
2019-02-23T01:23:48.600Z,91.90
2019-02-23T01:26:17.134Z,91.90
2019-02-23T01:28:45.643Z,91.90
2019-02-23T01:31:14.103Z,91.90
2019-02-23T01:33:42.815Z,91.80
2019-02-23T01:36:11.439Z,91.70
2019-02-23T01:38:39.900Z,91.30
2019-02-23T01:41:08.536Z,91.20
2019-02-23T01:43:37.074Z,91.20
2019-02-23T01:46:05.634Z,91.40
2019-02-23T01:48:34.099Z,91.30
2019-02-23T01:51:02.650Z,91.30
2019-02-23T01:53:31.120Z,91.20
2019-02-23T01:55:59.799Z,91.10
2019-02-23T01:58:28.337Z,90.70
2019-02-23T02:00:56.983Z,90.60
2019-02-23T02:03:25.659Z,90.30
2019-02-23T02:05:54.118Z,90.00
2019-02-23T02:08:22.675Z,89.80
2019-02-23T02:10:51.139Z,89.50
2019-02-23T02:13:19.699Z,88.70
2019-02-23T02:15:48.498Z,88.70
2019-02-23T02:18:17.060Z,88.00
2019-02-23T02:20:45.522Z,88.10
2019-02-23T02:23:14.006Z,87.70
2019-02-23T02:25:42.535Z,87.60
2019-02-23T02:28:11.025Z,86.90
2019-02-23T02:30:39.625Z,86.70
2019-02-23T02:33:08.097Z,86.50
2019-02-23T02:35:36.659Z,86.50
2019-02-23T02:38:05.131Z,85.80
2019-02-23T02:40:33.868Z,86.00
2019-02-23T02:43:02.404Z,86.10
2019-02-23T02:45:30.964Z,85.70
2019-02-23T02:47:59.424Z,86.20
2019-02-23T02:50:27.887Z,85.80
2019-02-23T02:52:56.472Z,85.10
2019-02-23T02:55:24.995Z,85.50
2019-02-23T02:57:53.482Z,85.40
2019-02-23T03:00:22.116Z,85.20
2019-02-23T03:02:50.679Z,85.00
2019-02-23T03:05:19.154Z,85.20
2019-02-23T03:07:47.703Z,85.50
2019-02-23T03:10:16.176Z,85.60
2019-02-23T03:12:44.636Z,85.70
2019-02-23T03:15:13.272Z,85.50
2019-02-23T03:17:41.806Z,85.70
2019-02-23T03:20:10.368Z,86.10
2019-02-23T03:22:38.938Z,86.40
2019-02-23T03:25:07.947Z,86.60
2019-02-23T03:27:36.513Z,86.70
2019-02-23T03:30:07.696Z,87.10
2019-02-23T03:32:36.264Z,87.60
2019-02-23T03:35:05.366Z,87.70
2019-02-23T03:37:33.830Z,88.20
2019-02-23T03:40:02.298Z,88.40
2019-02-23T03:42:30.786Z,88.80
2019-02-23T03:44:59.274Z,89.90
2019-02-23T03:47:27.765Z,89.30
2019-02-23T03:49:56.339Z,89.50
2019-02-23T03:52:24.947Z,89.90
2019-02-23T03:54:53.513Z,89.30
2019-02-23T03:57:22.047Z,89.80
2019-02-23T03:59:50.620Z,89.40
2019-02-23T04:02:19.154Z,89.30
2019-02-23T04:04:47.646Z,89.40
2019-02-23T04:07:16.118Z,89.30
2019-02-23T04:09:44.780Z,89.50
2019-02-23T04:12:13.248Z,89.30
2019-02-23T04:14:41.782Z,89.40
2019-02-23T04:17:10.347Z,89.70
2019-02-23T04:19:38.979Z,89.70
2019-02-23T04:22:07.656Z,89.60
2019-02-23T04:24:36.217Z,89.90
2019-02-23T04:27:04.856Z,90.00
2019-02-23T04:29:33.423Z,90.00
2019-02-23T04:32:01.940Z,89.70
2019-02-23T04:34:30.559Z,89.70
2019-02-23T04:36:59.127Z,89.70
2019-02-23T04:39:27.592Z,89.80
2019-02-23T04:41:56.155Z,89.90
2019-02-23T04:44:24.727Z,89.50
2019-02-23T04:46:53.218Z,89.30
2019-02-23T04:49:21.691Z,89.40
2019-02-23T04:51:50.294Z,89.30
2019-02-23T04:54:18.843Z,89.10
2019-02-23T04:56:47.380Z,88.90
2019-02-23T04:59:15.994Z,89.20
2019-02-23T05:01:44.487Z,88.70
2019-02-23T05:04:12.974Z,88.20
2019-02-23T05:06:41.447Z,88.20
2019-02-23T05:09:09.951Z,88.30
2019-02-23T05:11:38.483Z,88.60
2019-02-23T05:14:07.079Z,88.20
2019-02-23T05:16:35.647Z,88.40
2019-02-23T05:19:04.111Z,88.80
2019-02-23T05:21:32.612Z,88.80
2019-02-23T05:24:01.155Z,89.10
2019-02-23T05:26:29.728Z,89.30
2019-02-23T05:28:58.199Z,89.10
2019-02-23T05:31:26.682Z,89.30
2019-02-23T05:33:55.231Z,89.70
2019-02-23T05:36:23.728Z,89.80
2019-02-23T05:38:52.259Z,90.30
2019-02-23T05:41:20.748Z,89.90
2019-02-23T05:43:49.302Z,90.30
2019-02-23T05:46:17.766Z,90.10
2019-02-23T05:48:46.354Z,90.00
2019-02-23T05:51:14.819Z,90.10
2019-02-23T05:53:43.311Z,90.10
2019-02-23T05:56:15.998Z,90.10
2019-02-23T05:58:42.130Z,90.20
2019-02-23T06:01:10.594Z,90.20
2019-02-23T06:03:39.094Z,90.20
2019-02-23T06:06:07.738Z,90.30
2019-02-23T06:08:36.231Z,90.30
2019-02-23T06:11:04.778Z,90.30
2019-02-23T06:13:33.367Z,90.30
2019-02-23T06:16:01.948Z,90.40
2019-02-23T06:18:30.495Z,90.30
2019-02-23T06:20:59.033Z,90.30
2019-02-23T06:23:27.704Z,90.40
2019-02-23T06:25:56.249Z,90.50
2019-02-23T06:28:24.807Z,90.60
2019-02-23T06:30:53.283Z,90.50
2019-02-23T06:33:21.840Z,90.60
2019-02-23T06:35:50.387Z,90.30
2019-02-23T06:38:18.883Z,90.70
2019-02-23T06:40:47.422Z,90.20
2019-02-23T06:43:15.885Z,90.10
2019-02-23T06:45:44.374Z,89.90
2019-02-23T06:48:12.839Z,89.30
2019-02-23T06:50:41.338Z,89.00
2019-02-23T06:53:09.935Z,88.70
2019-02-23T06:55:38.403Z,88.40
2019-02-23T06:58:06.895Z,88.20
2019-02-23T07:00:35.434Z,87.90
2019-02-23T07:03:03.921Z,87.70
2019-02-23T07:05:32.392Z,87.40
2019-02-23T07:08:00.960Z,87.30
2019-02-23T07:10:29.510Z,86.40
2019-02-23T07:12:57.999Z,84.40
2019-02-23T07:15:26.459Z,82.50
2019-02-23T07:17:54.951Z,80.60
2019-02-23T07:20:23.419Z,78.90
2019-02-23T07:22:52.003Z,77.10
2019-02-23T07:25:20.465Z,73.30
2019-02-23T07:27:48.931Z,70.60
2019-02-23T07:30:17.494Z,67.90
2019-02-23T07:32:46.070Z,64.90
2019-02-23T07:35:14.635Z,61.20
2019-02-23T07:37:43.172Z,59.90
2019-02-23T07:40:13.779Z,57.90
2019-02-23T07:42:42.247Z,56.60
2019-02-23T07:45:11.176Z,55.10
2019-02-23T07:47:39.646Z,53.80
2019-02-23T07:50:15.516Z,51.80
2019-02-23T07:52:44.127Z,49.80
2019-02-23T07:55:12.615Z,49.60
2019-02-23T07:57:41.147Z,48.70
2019-02-23T08:00:12.263Z,47.80
2019-02-23T08:02:40.762Z,47.70
2019-02-23T08:05:10.344Z,47.50
2019-02-23T08:07:39.883Z,48.20
2019-02-23T08:10:10.866Z,48.70
2019-02-23T08:12:39.367Z,48.70
2019-02-23T08:15:10.048Z,48.70
2019-02-23T08:17:38.622Z,47.30
2019-02-23T08:20:13.927Z,45.80
2019-02-23T08:22:42.419Z,44.20
2019-02-23T08:25:12.762Z,43.60
2019-02-23T08:27:41.328Z,42.50
2019-02-23T08:30:13.179Z,41.90
2019-02-23T08:32:41.687Z,40.80
2019-02-23T08:35:10.257Z,40.20
2019-02-23T08:37:38.935Z,41.80
2019-02-23T08:40:17.519Z,44.60
2019-02-23T08:42:46.328Z,44.90
2019-02-23T08:45:14.867Z,42.30
2019-02-23T08:47:43.507Z,41.00
2019-02-23T08:50:14.211Z,40.00
2019-02-23T08:52:49.160Z,40.40
2019-02-23T08:55:12.994Z,41.20
2019-02-23T08:57:41.739Z,42.40
2019-02-23T09:00:20.703Z,43.30
2019-02-23T09:02:49.294Z,43.40
2019-02-23T09:05:17.911Z,44.10
2019-02-23T09:07:46.406Z,43.40
2019-02-23T09:10:15.550Z,42.10
2019-02-23T09:12:44.271Z,42.40
2019-02-23T09:15:12.878Z,42.70
2019-02-23T09:17:41.482Z,39.80
2019-02-23T09:20:11.772Z,39.30
2019-02-23T09:22:40.425Z,39.20
2019-02-23T09:25:10.646Z,37.80
2019-02-23T09:27:39.331Z,36.60
2019-02-23T09:30:14.797Z,37.10
2019-02-23T09:32:43.416Z,36.70
2019-02-23T09:35:12.042Z,35.40
2019-02-23T09:37:40.507Z,34.80
2019-02-23T09:40:14.798Z,35.90
2019-02-23T09:42:43.272Z,36.60
2019-02-23T09:45:12.602Z,35.80
2019-02-23T09:47:41.147Z,35.50
2019-02-23T09:50:09.835Z,35.00
2019-02-23T09:52:38.487Z,35.50
2019-02-23T09:55:08.492Z,37.00
2019-02-23T09:57:37.127Z,38.40
2019-02-23T10:00:11.440Z,39.30
2019-02-23T10:02:40.001Z,38.40
2019-02-23T10:05:09.218Z,39.10
2019-02-23T10:07:37.822Z,38.00
2019-02-23T10:10:10.839Z,36.90
2019-02-23T10:12:39.474Z,38.40
2019-02-23T10:15:10.120Z,37.90
2019-02-23T10:17:38.739Z,38.70
2019-02-23T10:20:12.138Z,40.10
2019-02-23T10:22:40.603Z,41.20
2019-02-23T10:25:09.347Z,41.20
2019-02-23T10:27:37.896Z,41.20
2019-02-23T10:30:14.031Z,41.40
2019-02-23T10:32:42.575Z,41.40
2019-02-23T10:35:12.683Z,41.20
2019-02-23T10:37:41.295Z,41.40
2019-02-23T10:40:11.429Z,42.90
2019-02-23T10:42:40.077Z,42.40
2019-02-23T10:45:13.455Z,41.10
2019-02-23T10:47:42.090Z,40.10
2019-02-23T10:50:12.198Z,38.60
2019-02-23T10:52:40.787Z,39.60
2019-02-23T10:55:11.699Z,39.50
2019-02-23T10:57:40.258Z,38.80
2019-02-23T11:00:22.889Z,38.00
2019-02-23T11:02:51.547Z,37.80
2019-02-23T11:05:20.712Z,38.20
2019-02-23T11:07:49.950Z,37.50
2019-02-23T11:10:19.126Z,38.40
2019-02-23T11:12:47.603Z,37.00
2019-02-23T11:15:18.154Z,38.30
2019-02-23T11:17:46.884Z,40.10
2019-02-23T11:20:16.487Z,42.00
2019-02-23T11:22:45.053Z,42.20
2019-02-23T11:25:13.763Z,42.70
2019-02-23T11:27:42.302Z,43.60
2019-02-23T11:30:13.126Z,45.20
2019-02-23T11:32:41.735Z,45.70
2019-02-23T11:35:12.446Z,47.90
2019-02-23T11:37:41.079Z,47.70
2019-02-23T11:40:11.588Z,47.80
2019-02-23T11:42:40.155Z,48.60
2019-02-23T11:45:10.371Z,48.80
2019-02-23T11:47:38.867Z,48.10
2019-02-23T11:50:10.347Z,48.00
2019-02-23T11:52:39.564Z,49.10
2019-02-23T11:55:08.543Z,48.40
2019-02-23T11:57:37.079Z,48.80
2019-02-23T12:00:11.487Z,48.90
2019-02-23T12:02:39.979Z,48.50
2019-02-23T12:05:09.700Z,48.00
2019-02-23T12:07:38.339Z,47.50
2019-02-23T12:10:12.330Z,47.00
2019-02-23T12:12:40.799Z,46.90
2019-02-23T12:15:10.131Z,47.30
2019-02-23T12:17:38.669Z,47.00
2019-02-23T12:20:09.850Z,47.20
2019-02-23T12:22:38.343Z,47.30
2019-02-23T12:25:07.975Z,47.60
2019-02-23T12:27:36.558Z,45.50
2019-02-23T12:30:10.103Z,45.00
2019-02-23T12:32:38.574Z,45.30
2019-02-23T12:35:09.691Z,45.10
2019-02-23T12:37:38.175Z,44.60
2019-02-23T12:40:08.122Z,43.90
2019-02-23T12:42:36.722Z,43.70
2019-02-23T12:45:07.510Z,42.10
2019-02-23T12:47:36.175Z,44.10
2019-02-23T12:50:07.564Z,44.80
2019-02-23T12:52:36.218Z,44.60
2019-02-23T12:55:06.982Z,45.10
2019-02-23T12:57:35.483Z,44.60
2019-02-23T13:00:06.831Z,45.30
2019-02-23T13:02:35.318Z,45.10
2019-02-23T13:05:04.899Z,44.90
2019-02-23T13:07:33.407Z,43.90
2019-02-23T13:10:01.931Z,43.50
2019-02-23T13:12:36.459Z,42.70
2019-02-23T13:15:22.767Z,43.20
2019-02-23T13:18:16.181Z,43.80
2019-02-23T13:20:56.450Z,43.70
2019-02-23T13:23:42.890Z,43.20
2019-02-23T13:26:17.354Z,43.10
2019-02-23T13:29:07.008Z,43.00
2019-02-23T13:31:58.070Z,44.00
2019-02-23T13:34:38.510Z,42.90
2019-02-23T13:37:12.484Z,42.50
2019-02-23T13:40:00.767Z,42.70
2019-02-23T13:42:38.247Z,43.20
2019-02-23T13:45:09.795Z,43.50
2019-02-23T13:47:50.283Z,43.00
2019-02-23T13:50:30.188Z,42.50
2019-02-23T13:53:01.756Z,42.20
2019-02-23T13:55:48.292Z,42.80
2019-02-23T13:58:22.858Z,42.40
2019-02-23T14:01:27.699Z,42.60
2019-02-23T14:04:32.448Z,42.10
2019-02-23T14:07:24.035Z,42.40
2019-02-23T14:10:12.055Z,42.70
2019-02-23T14:12:46.249Z,42.10
2019-02-23T14:15:45.339Z,42.20
2019-02-23T14:18:22.516Z,42.00
2019-02-23T14:20:54.156Z,41.80
2019-02-23T14:23:37.987Z,42.00
2019-02-23T14:26:15.651Z,41.70
2019-02-23T14:29:17.639Z,41.60
2019-02-23T14:31:58.496Z,42.30
2019-02-23T14:34:30.111Z,42.40
2019-02-23T14:37:27.067Z,43.20
2019-02-23T14:40:10.772Z,43.30
2019-02-23T14:42:42.431Z,43.00
2019-02-23T14:45:53.086Z,42.70
2019-02-23T14:48:48.893Z,41.70
2019-02-23T14:51:26.012Z,42.70
2019-02-23T14:54:03.600Z,42.90
2019-02-23T14:56:56.377Z,41.90
2019-02-23T14:59:33.806Z,42.30
2019-02-23T15:02:26.296Z,42.80
2019-02-23T15:04:57.863Z,40.10
2019-02-23T15:07:35.127Z,41.40
2019-02-23T15:10:23.191Z,41.30
2019-02-23T15:13:15.786Z,41.30
2019-02-23T15:15:59.483Z,40.10
2019-02-23T15:18:50.439Z,39.90
2019-02-23T15:21:24.983Z,39.70
2019-02-23T15:24:17.431Z,40.40
2019-02-23T15:27:14.803Z,41.40
2019-02-23T15:29:57.967Z,40.80
2019-02-23T15:33:05.223Z,40.80
2019-02-23T15:35:52.135Z,41.40
2019-02-23T15:38:39.132Z,41.00
2019-02-23T15:41:23.076Z,41.20
2019-02-23T15:44:07.127Z,41.20
2019-02-23T15:47:03.794Z,41.30
2019-02-23T15:49:32.925Z,40.90
2019-02-23T15:52:02.844Z,42.10
2019-02-23T15:54:31.447Z,42.40
2019-02-23T15:57:00.126Z,42.40
2019-02-23T15:59:28.623Z,43.40
2019-02-23T16:01:57.156Z,43.30
2019-02-23T16:04:25.730Z,43.50
2019-02-23T16:06:54.270Z,43.20
2019-02-23T16:09:22.875Z,42.90
2019-02-23T16:11:51.455Z,43.30
2019-02-23T16:14:19.915Z,43.50
2019-02-23T16:16:48.378Z,43.80
2019-02-23T16:19:17.019Z,43.20
2019-02-23T16:21:45.669Z,43.80
2019-02-23T16:24:14.227Z,44.00
2019-02-23T16:26:42.927Z,44.00
2019-02-23T16:29:11.411Z,44.40
2019-02-23T16:31:40.034Z,44.60
2019-02-23T16:34:08.634Z,44.90
2019-02-23T16:36:37.192Z,44.50
2019-02-23T16:39:09.099Z,44.20
2019-02-23T16:41:37.661Z,44.20
2019-02-23T16:44:06.203Z,44.80
2019-02-23T16:46:34.787Z,45.20
2019-02-23T16:49:03.318Z,45.60
2019-02-23T16:51:32.002Z,46.60
2019-02-23T16:54:00.483Z,47.30
2019-02-23T16:56:28.938Z,48.40
2019-02-23T16:58:57.530Z,49.00
2019-02-23T17:01:26.650Z,49.90
2019-02-23T17:03:55.270Z,50.70
2019-02-23T17:06:23.754Z,51.00
2019-02-23T17:09:11.799Z,51.20
2019-02-23T17:11:40.471Z,51.30
2019-02-23T17:14:08.999Z,51.60
2019-02-23T17:16:37.491Z,51.60
2019-02-23T17:19:06.019Z,52.10
2019-02-23T17:21:34.504Z,52.30
2019-02-23T17:24:03.138Z,52.70
2019-02-23T17:26:31.636Z,52.90
2019-02-23T17:29:00.172Z,53.20
2019-02-23T17:31:28.832Z,53.00
2019-02-23T17:33:57.462Z,52.90
2019-02-23T17:36:25.979Z,53.10
2019-02-23T17:38:54.467Z,52.70
2019-02-23T17:41:22.938Z,52.70
2019-02-23T17:43:54.095Z,53.00
2019-02-23T17:46:21.775Z,53.30
2019-02-23T17:48:50.337Z,53.00
2019-02-23T17:51:19.000Z,53.00
2019-02-23T17:53:47.947Z,53.10
2019-02-23T17:56:16.591Z,53.10
2019-02-23T17:58:45.114Z,52.60
2019-02-23T18:01:13.700Z,53.10
2019-02-23T18:03:42.328Z,52.70
2019-02-23T18:06:10.831Z,53.00
2019-02-23T18:08:39.490Z,53.20
2019-02-23T18:11:08.073Z,53.50
2019-02-23T18:13:36.724Z,53.60
2019-02-23T18:16:05.229Z,53.80
2019-02-23T18:18:33.754Z,54.20
2019-02-23T18:21:02.235Z,54.60
2019-02-23T18:23:30.742Z,54.30
2019-02-23T18:25:59.303Z,54.30
2019-02-23T18:28:27.790Z,54.70
2019-02-23T18:30:56.833Z,54.50
2019-02-23T18:33:25.490Z,54.70
2019-02-23T18:35:53.979Z,54.80
2019-02-23T18:38:22.463Z,54.40
2019-02-23T18:41:10.335Z,55.10
2019-02-23T18:43:38.818Z,55.30
2019-02-23T18:46:07.283Z,55.40
2019-02-23T18:48:37.042Z,55.60
2019-02-23T18:51:05.507Z,55.80
2019-02-23T18:53:33.999Z,55.60
2019-02-23T18:56:02.895Z,56.10
2019-02-23T18:58:31.388Z,56.40
2019-02-23T19:00:59.866Z,56.40
2019-02-23T19:03:28.326Z,56.10
2019-02-23T19:05:56.906Z,56.80
2019-02-23T19:08:25.447Z,56.70
2019-02-23T19:10:55.745Z,56.90
2019-02-23T19:13:24.134Z,56.90
2019-02-23T19:15:52.763Z,57.00
2019-02-23T19:18:21.226Z,56.90
2019-02-23T19:21:02.335Z,56.80
2019-02-23T19:23:30.831Z,57.10
2019-02-23T19:25:59.295Z,57.20
2019-02-23T19:28:27.765Z,57.40
2019-02-23T19:30:56.342Z,57.70
2019-02-23T19:33:24.805Z,57.70
2019-02-23T19:35:53.338Z,57.60
2019-02-23T19:38:21.831Z,57.90
2019-02-23T19:40:50.308Z,57.50
2019-02-23T19:43:18.943Z,57.60
2019-02-23T19:45:47.410Z,57.60
2019-02-23T19:48:16.003Z,57.60
2019-02-23T19:50:47.991Z,57.30
2019-02-23T19:53:16.523Z,57.20
2019-02-23T19:55:45.175Z,56.40
2019-02-23T19:58:13.634Z,56.20
2019-02-23T20:00:42.127Z,56.20
2019-02-23T20:03:10.586Z,56.10
2019-02-23T20:05:39.074Z,56.30
2019-02-23T20:08:07.616Z,56.20
2019-02-23T20:10:36.098Z,56.30
2019-02-23T20:13:04.604Z,56.40
2019-02-23T20:15:33.077Z,56.60
2019-02-23T20:18:01.610Z,56.10
2019-02-23T20:20:30.103Z,55.90
2019-02-23T20:22:58.567Z,56.00
2019-02-23T20:25:27.107Z,55.50
2019-02-23T20:27:55.958Z,54.80
2019-02-23T20:30:24.460Z,54.60
2019-02-23T20:32:53.022Z,54.30
2019-02-23T20:35:21.631Z,54.40
2019-02-23T20:37:50.262Z,54.20
2019-02-23T20:40:18.723Z,54.20
2019-02-23T20:42:47.206Z,54.40
2019-02-23T20:45:15.766Z,54.30
2019-02-23T20:47:44.374Z,54.10
2019-02-23T20:50:12.923Z,54.20
2019-02-23T20:52:41.618Z,54.30
2019-02-23T20:55:10.287Z,54.60
2019-02-23T20:57:38.747Z,54.00
2019-02-23T21:00:09.855Z,54.30
2019-02-23T21:02:38.338Z,54.50
2019-02-23T21:05:10.015Z,54.20
2019-02-23T21:07:38.959Z,54.20
2019-02-23T21:10:09.556Z,54.20
2019-02-23T21:12:38.042Z,54.20
2019-02-23T21:15:09.510Z,54.50
2019-02-23T21:17:38.002Z,54.90
2019-02-23T21:20:08.728Z,56.20
2019-02-23T21:22:37.979Z,57.30
2019-02-23T21:25:07.684Z,57.90
2019-02-23T21:27:36.328Z,58.00
2019-02-23T21:30:07.457Z,56.30
2019-02-23T21:32:36.007Z,56.10
2019-02-23T21:35:05.931Z,56.30
2019-02-23T21:37:34.395Z,55.80
2019-02-23T21:40:03.129Z,55.40
2019-02-23T21:42:31.603Z,55.30
2019-02-23T21:45:00.151Z,54.80
2019-02-23T21:47:28.836Z,54.90
2019-02-23T21:49:57.298Z,55.10
2019-02-23T21:52:25.774Z,55.20
2019-02-23T21:54:54.371Z,55.00
2019-02-23T21:57:22.926Z,54.60
2019-02-23T21:59:51.438Z,54.40
2019-02-23T22:02:20.003Z,54.00
2019-02-23T22:04:48.576Z,54.10
2019-02-23T22:07:17.119Z,54.40
2019-02-23T22:09:45.659Z,54.60
2019-02-23T22:12:14.226Z,54.90
2019-02-23T22:14:42.759Z,55.20
2019-02-23T22:17:11.225Z,56.20
2019-02-23T22:19:39.720Z,56.00
2019-02-23T22:22:08.458Z,56.00
2019-02-23T22:24:36.915Z,56.20
2019-02-23T22:27:05.408Z,55.10
2019-02-23T22:29:33.956Z,55.70
2019-02-23T22:32:02.579Z,54.40
2019-02-23T22:34:31.183Z,55.00
2019-02-23T22:36:59.643Z,54.00
2019-02-23T22:39:28.135Z,53.80
2019-02-23T22:41:56.687Z,53.90
2019-02-23T22:44:25.182Z,54.00
2019-02-23T22:46:53.650Z,53.40
2019-02-23T22:49:22.135Z,53.40
2019-02-23T22:51:50.598Z,53.00
2019-02-23T22:54:19.103Z,53.20
2019-02-23T22:56:47.567Z,53.00
2019-02-23T22:59:16.069Z,52.80
2019-02-23T23:01:45.119Z,53.10
2019-02-23T23:04:13.708Z,52.70
2019-02-23T23:06:42.262Z,52.80
2019-02-23T23:09:12.530Z,52.60
2019-02-23T23:11:41.014Z,52.50
2019-02-23T23:14:09.652Z,52.60
2019-02-23T23:16:38.145Z,52.60
2019-02-23T23:19:06.768Z,52.60
2019-02-23T23:21:35.255Z,52.80
2019-02-23T23:24:03.719Z,52.60
2019-02-23T23:26:32.204Z,52.30
2019-02-23T23:29:00.779Z,52.60
2019-02-23T23:31:29.310Z,52.90
2019-02-23T23:33:57.775Z,53.20
2019-02-23T23:36:26.338Z,53.50
2019-02-23T23:38:54.804Z,53.00
2019-02-23T23:41:23.366Z,53.50
2019-02-23T23:43:51.931Z,53.30
2019-02-23T23:46:20.395Z,53.00
2019-02-23T23:48:48.859Z,53.10
2019-02-23T23:51:17.342Z,52.80
2019-02-23T23:53:45.827Z,52.90
2019-02-23T23:56:14.311Z,53.20
2019-02-23T23:58:42.795Z,53.30
